createdAt,value
2017-10-16T00:01:47.105Z,16.77
2017-10-16T00:04:15.401Z,17.47
2017-10-16T00:06:43.676Z,17.43
2017-10-16T00:09:11.218Z,17.07
2017-10-16T00:11:38.723Z,17.30
2017-10-16T00:14:07.019Z,17.13
2017-10-16T00:16:35.287Z,18.03
2017-10-16T00:19:02.822Z,17.37
2017-10-16T00:21:30.316Z,18.50
2017-10-16T00:23:57.881Z,17.40
2017-10-16T00:26:25.381Z,16.83
2017-10-16T00:28:53.657Z,17.67
2017-10-16T00:31:21.198Z,17.03
2017-10-16T00:33:48.707Z,17.70
2017-10-16T00:36:16.237Z,17.77
2017-10-16T00:38:43.736Z,17.77
2017-10-16T00:41:11.270Z,18.33
2017-10-16T00:43:39.655Z,16.40
2017-10-16T00:46:07.190Z,17.13
2017-10-16T00:48:34.699Z,15.97
2017-10-16T00:51:02.253Z,17.20
2017-10-16T00:53:29.781Z,17.00
2017-10-16T00:55:57.334Z,16.83
2017-10-16T00:58:24.834Z,17.10
2017-10-16T01:00:52.354Z,16.20
2017-10-16T01:03:19.898Z,18.87
2017-10-16T01:05:47.402Z,15.83
2017-10-16T01:08:14.939Z,17.27
2017-10-16T01:10:42.452Z,17.17
2017-10-16T01:13:09.989Z,15.80
2017-10-16T01:15:38.276Z,17.20
2017-10-16T01:18:06.585Z,18.30
2017-10-16T01:20:34.865Z,18.10
2017-10-16T01:23:02.399Z,18.17
2017-10-16T01:25:29.901Z,16.57
2017-10-16T01:27:58.213Z,16.67
2017-10-16T01:30:25.750Z,17.67
2017-10-16T01:32:53.249Z,18.40
2017-10-16T01:35:21.548Z,17.67
2017-10-16T01:37:49.059Z,17.27
2017-10-16T01:40:16.610Z,16.90
2017-10-16T01:42:44.144Z,15.93
2017-10-16T01:45:11.682Z,16.00
2017-10-16T01:47:39.194Z,18.27
2017-10-16T01:50:07.495Z,15.67
2017-10-16T01:52:34.998Z,17.10
2017-10-16T01:55:02.543Z,17.00
2017-10-16T01:57:30.033Z,17.07
2017-10-16T01:59:57.626Z,17.27
2017-10-16T02:02:25.143Z,16.47
2017-10-16T02:04:52.635Z,15.20
2017-10-16T02:07:20.170Z,16.37
2017-10-16T02:09:47.669Z,16.00
2017-10-16T02:12:15.290Z,17.10
2017-10-16T02:14:42.786Z,16.70
2017-10-16T02:17:11.081Z,17.23
2017-10-16T02:19:39.342Z,16.93
2017-10-16T02:22:06.885Z,17.53
2017-10-16T02:24:34.417Z,17.83
2017-10-16T02:27:01.929Z,17.67
2017-10-16T02:29:29.461Z,17.53
2017-10-16T02:31:56.973Z,16.63
2017-10-16T02:34:24.514Z,17.13
2017-10-16T02:36:52.014Z,18.33
2017-10-16T02:39:19.562Z,17.47
2017-10-16T02:41:47.065Z,17.40
2017-10-16T02:44:14.629Z,18.57
2017-10-16T02:46:42.133Z,16.27
2017-10-16T02:49:09.629Z,17.07
2017-10-16T02:51:37.965Z,15.83
2017-10-16T02:54:05.465Z,16.03
2017-10-16T02:56:33.130Z,17.10
2017-10-16T02:59:00.638Z,17.77
2017-10-16T03:01:28.169Z,17.27
2017-10-16T03:03:55.678Z,16.70
2017-10-16T03:06:23.978Z,16.63
2017-10-16T03:08:52.254Z,17.60
2017-10-16T03:11:19.806Z,17.70
2017-10-16T03:13:47.381Z,17.70
2017-10-16T03:16:14.945Z,18.17
2017-10-16T03:18:42.470Z,18.27
2017-10-16T03:21:09.974Z,17.60
2017-10-16T03:23:37.511Z,17.33
2017-10-16T03:26:05.037Z,16.57
2017-10-16T03:28:32.574Z,16.30
2017-10-16T03:31:00.074Z,16.27
2017-10-16T03:33:28.473Z,17.27
2017-10-16T03:35:55.981Z,17.90
2017-10-16T03:38:24.289Z,18.13
2017-10-16T03:40:51.799Z,19.97
2017-10-16T03:43:20.267Z,18.07
2017-10-16T03:45:47.810Z,16.10
2017-10-16T03:48:15.327Z,17.70
2017-10-16T03:50:42.868Z,18.43
2017-10-16T03:53:10.371Z,17.10
2017-10-16T03:55:37.913Z,16.70
2017-10-16T03:58:05.414Z,17.87
2017-10-16T04:00:32.949Z,15.97
2017-10-16T04:03:00.790Z,17.83
2017-10-16T04:05:28.329Z,17.33
2017-10-16T04:07:55.824Z,18.47
2017-10-16T04:10:23.378Z,15.60
2017-10-16T04:12:50.878Z,17.63
2017-10-16T04:15:18.402Z,16.07
2017-10-16T04:17:45.941Z,16.50
2017-10-16T04:20:14.205Z,16.63
2017-10-16T04:22:41.745Z,16.63
2017-10-16T04:25:09.246Z,17.23
2017-10-16T04:27:36.790Z,17.30
2017-10-16T04:30:04.301Z,16.60
2017-10-16T04:32:31.846Z,18.30
2017-10-16T04:34:59.348Z,16.97
2017-10-16T04:37:26.897Z,17.50
2017-10-16T04:39:54.424Z,17.07
2017-10-16T04:42:21.931Z,16.60
2017-10-16T04:44:49.467Z,16.87
2017-10-16T04:47:16.982Z,15.80
2017-10-16T04:49:44.539Z,15.80
2017-10-16T04:52:12.034Z,16.50
2017-10-16T04:54:39.579Z,16.10
2017-10-16T04:57:07.118Z,16.60
2017-10-16T04:59:34.662Z,16.07
2017-10-16T05:02:03.300Z,16.87
2017-10-16T05:04:30.837Z,18.40
2017-10-16T05:06:59.146Z,17.13
2017-10-16T05:09:27.450Z,18.43
2017-10-16T05:11:54.949Z,18.47
2017-10-16T05:14:22.519Z,18.63
2017-10-16T05:16:50.013Z,19.47
2017-10-16T05:19:17.509Z,18.00
2017-10-16T05:21:45.095Z,18.57
2017-10-16T05:24:12.626Z,19.00
2017-10-16T05:26:40.167Z,17.73
2017-10-16T05:29:07.683Z,17.93
2017-10-16T05:31:35.218Z,19.10
2017-10-16T05:34:02.718Z,19.53
2017-10-16T05:36:30.278Z,19.20
2017-10-16T05:38:57.807Z,18.07
2017-10-16T05:41:25.346Z,17.50
2017-10-16T05:43:53.631Z,18.73
2017-10-16T05:46:21.142Z,18.17
2017-10-16T05:48:48.691Z,17.20
2017-10-16T05:51:16.954Z,17.80
2017-10-16T05:53:44.486Z,18.40
2017-10-16T05:56:11.981Z,17.50
2017-10-16T05:58:39.520Z,15.80
2017-10-16T06:01:07.014Z,17.20
2017-10-16T06:03:34.783Z,17.30
2017-10-16T06:06:02.284Z,15.10
2017-10-16T06:08:29.858Z,16.07
2017-10-16T06:10:57.362Z,17.70
2017-10-16T06:13:24.858Z,17.20
2017-10-16T06:15:52.387Z,17.13
2017-10-16T06:18:19.950Z,15.53
2017-10-16T06:20:47.490Z,16.67
2017-10-16T06:23:14.990Z,16.57
2017-10-16T06:25:42.521Z,15.73
2017-10-16T06:28:10.065Z,16.43
2017-10-16T06:30:38.361Z,15.70
2017-10-16T06:33:05.896Z,15.70
2017-10-16T06:35:33.449Z,16.93
2017-10-16T06:38:00.954Z,15.70
2017-10-16T06:40:28.458Z,15.80
2017-10-16T06:42:56.034Z,15.37
2017-10-16T06:45:23.548Z,14.27
2017-10-16T06:47:51.080Z,14.20
2017-10-16T06:50:18.604Z,16.20
2017-10-16T06:52:46.146Z,15.50
2017-10-16T06:55:13.646Z,15.90
2017-10-16T06:57:41.178Z,15.37
2017-10-16T07:00:08.677Z,14.70
2017-10-16T07:02:36.226Z,14.20
2017-10-16T07:05:03.725Z,14.57
2017-10-16T07:07:31.261Z,14.60
2017-10-16T07:09:58.793Z,14.13
2017-10-16T07:12:27.093Z,16.27
2017-10-16T07:14:55.399Z,12.27
2017-10-16T07:17:22.918Z,13.60
2017-10-16T07:19:50.473Z,12.20
2017-10-16T07:22:17.974Z,13.37
2017-10-16T07:24:45.531Z,13.33
2017-10-16T07:27:13.026Z,12.70
2017-10-16T07:29:40.526Z,13.23
2017-10-16T07:32:08.062Z,12.70
2017-10-16T07:34:35.567Z,11.43
2017-10-16T07:37:03.109Z,12.87
2017-10-16T07:39:30.605Z,11.13
2017-10-16T07:41:58.145Z,11.37
2017-10-16T07:44:25.646Z,13.10
2017-10-16T07:46:53.954Z,11.63
2017-10-16T07:49:21.463Z,12.00
2017-10-16T07:51:48.979Z,11.47
2017-10-16T07:54:17.274Z,9.30
2017-10-16T07:56:44.793Z,10.63
2017-10-16T07:59:12.317Z,10.23
2017-10-16T08:01:39.816Z,9.80
2017-10-16T08:04:07.378Z,10.07
2017-10-16T08:06:34.888Z,10.40
2017-10-16T08:09:02.437Z,10.67
2017-10-16T08:11:29.933Z,12.47
2017-10-16T08:13:57.468Z,11.13
2017-10-16T08:16:24.981Z,11.23
2017-10-16T08:18:52.525Z,11.50
2017-10-16T08:21:20.032Z,10.40
2017-10-16T08:23:47.585Z,10.53
2017-10-16T08:26:15.093Z,11.30
2017-10-16T08:28:43.358Z,11.27
2017-10-16T08:31:10.890Z,9.80
2017-10-16T08:33:38.401Z,10.53
2017-10-16T08:36:06.719Z,10.13
2017-10-16T08:38:34.218Z,10.00
2017-10-16T08:41:01.762Z,9.90
2017-10-16T08:43:29.387Z,9.23
2017-10-16T08:45:56.929Z,9.30
2017-10-16T08:48:24.434Z,9.17
2017-10-16T08:50:51.973Z,10.30
2017-10-16T08:53:19.506Z,10.20
2017-10-16T08:55:47.002Z,8.80
2017-10-16T08:58:14.554Z,9.97
2017-10-16T09:00:42.819Z,10.80
2017-10-16T09:03:10.351Z,9.30
2017-10-16T09:05:37.904Z,9.83
2017-10-16T09:08:05.552Z,10.70
2017-10-16T09:10:33.094Z,9.67
2017-10-16T09:13:00.589Z,10.03
2017-10-16T09:15:28.126Z,10.07
2017-10-16T09:17:55.622Z,9.50
2017-10-16T09:20:23.176Z,8.70
2017-10-16T09:22:50.669Z,9.53
2017-10-16T09:25:18.201Z,8.40
2017-10-16T09:27:45.701Z,10.03
2017-10-16T09:30:13.233Z,10.13
2017-10-16T09:32:40.733Z,9.30
2017-10-16T09:35:08.353Z,9.70
2017-10-16T09:37:35.849Z,9.43
2017-10-16T09:40:03.402Z,9.30
2017-10-16T09:42:31.671Z,9.47
2017-10-16T09:44:59.166Z,9.30
2017-10-16T09:47:26.709Z,9.23
2017-10-16T09:49:54.201Z,8.87
2017-10-16T09:52:21.746Z,8.43
2017-10-16T09:54:49.251Z,8.17
2017-10-16T09:57:17.554Z,8.10
2017-10-16T09:59:45.054Z,9.13
2017-10-16T10:02:12.581Z,9.03
2017-10-16T10:04:40.085Z,8.63
2017-10-16T10:07:07.618Z,7.90
2017-10-16T10:09:35.922Z,8.33
2017-10-16T10:12:03.461Z,7.63
2017-10-16T10:14:30.982Z,6.77
2017-10-16T10:16:58.526Z,8.37
2017-10-16T10:19:26.797Z,8.20
2017-10-16T10:21:54.309Z,7.73
2017-10-16T10:24:21.868Z,7.50
2017-10-16T10:26:50.130Z,7.63
2017-10-16T10:29:17.664Z,7.67
2017-10-16T10:31:45.162Z,8.10
2017-10-16T10:34:12.701Z,7.90
2017-10-16T10:36:40.206Z,7.60
2017-10-16T10:39:07.748Z,7.60
2017-10-16T10:41:35.246Z,8.30
2017-10-16T10:44:02.803Z,8.87
2017-10-16T10:46:30.329Z,8.13
2017-10-16T10:48:58.598Z,8.20
2017-10-16T10:51:26.134Z,8.60
2017-10-16T10:53:53.632Z,8.87
2017-10-16T10:56:21.166Z,7.80
2017-10-16T10:58:48.665Z,6.80
2017-10-16T11:01:16.286Z,8.50
2017-10-16T11:03:43.830Z,7.57
2017-10-16T11:06:11.364Z,7.60
2017-10-16T11:08:38.855Z,8.00
2017-10-16T11:11:07.583Z,8.00
2017-10-16T11:13:35.871Z,7.33
2017-10-16T11:16:04.182Z,8.10
2017-10-16T11:18:31.679Z,6.73
2017-10-16T11:20:59.181Z,8.77
2017-10-16T11:23:26.748Z,7.83
2017-10-16T11:25:54.270Z,8.77
2017-10-16T11:28:21.813Z,9.00
2017-10-16T11:30:49.317Z,8.00
2017-10-16T11:33:16.871Z,7.77
2017-10-16T11:35:45.231Z,8.93
2017-10-16T11:38:12.735Z,8.53
2017-10-16T11:40:40.282Z,8.40
2017-10-16T11:43:07.782Z,8.10
2017-10-16T11:45:36.081Z,8.70
2017-10-16T11:48:03.595Z,8.30
2017-10-16T11:50:31.127Z,7.97
2017-10-16T11:52:58.621Z,8.43
2017-10-16T11:55:26.274Z,8.50
2017-10-16T11:57:53.778Z,8.23
2017-10-16T12:00:21.320Z,8.13
2017-10-16T12:02:48.858Z,7.80
2017-10-16T12:05:17.125Z,7.70
2017-10-16T12:07:44.654Z,7.80
2017-10-16T12:10:12.156Z,7.80
2017-10-16T12:12:39.695Z,8.83
2017-10-16T12:15:07.189Z,7.50
2017-10-16T12:17:34.766Z,8.50
2017-10-16T12:20:02.271Z,7.17
2017-10-16T12:22:29.777Z,7.27
2017-10-16T12:24:57.466Z,7.70
2017-10-16T12:27:24.967Z,8.80
2017-10-16T12:29:52.502Z,8.37
2017-10-16T12:32:20.002Z,8.37
2017-10-16T12:34:47.534Z,7.07
2017-10-16T12:37:15.022Z,8.50
2017-10-16T12:39:42.551Z,8.57
2017-10-16T12:42:10.049Z,8.27
2017-10-16T12:44:37.577Z,8.10
2017-10-16T12:47:05.078Z,7.80
2017-10-16T12:49:33.531Z,7.70
2017-10-16T12:52:01.049Z,7.50
2017-10-16T12:54:29.323Z,7.90
2017-10-16T12:56:57.621Z,7.60
2017-10-16T12:59:25.894Z,8.37
2017-10-16T13:01:53.452Z,7.00
2017-10-16T13:04:20.975Z,8.13
2017-10-16T13:06:48.479Z,7.50
2017-10-16T13:09:16.024Z,9.63
2017-10-16T13:11:43.567Z,7.23
2017-10-16T13:14:11.093Z,6.87
2017-10-16T13:16:38.590Z,6.97
2017-10-16T13:19:06.134Z,6.93
2017-10-16T13:21:33.658Z,7.90
2017-10-16T13:24:01.923Z,6.87
2017-10-16T13:26:29.475Z,7.47
2017-10-16T13:28:56.974Z,7.10
2017-10-16T13:31:24.520Z,6.80
2017-10-16T13:33:52.013Z,8.37
2017-10-16T13:36:19.549Z,7.23
2017-10-16T13:38:47.104Z,7.63
2017-10-16T13:41:14.641Z,8.13
2017-10-16T13:43:42.894Z,6.83
2017-10-16T13:46:10.940Z,7.80
2017-10-16T13:48:38.445Z,7.93
2017-10-16T13:51:06.005Z,7.50
2017-10-16T13:53:33.495Z,7.13
2017-10-16T13:56:01.033Z,6.90
2017-10-16T13:58:28.585Z,7.57
2017-10-16T14:00:56.082Z,7.07
2017-10-16T14:03:23.614Z,6.53
2017-10-16T14:05:51.873Z,6.83
2017-10-16T14:08:19.443Z,5.97
2017-10-16T14:10:46.953Z,7.70
2017-10-16T14:13:14.498Z,7.03
2017-10-16T14:15:42.826Z,7.33
2017-10-16T14:18:10.329Z,6.30
2017-10-16T14:20:37.871Z,7.27
2017-10-16T14:23:05.373Z,7.10
2017-10-16T14:25:32.924Z,7.13
2017-10-16T14:28:00.438Z,6.10
2017-10-16T14:30:27.982Z,5.80
2017-10-16T14:32:55.489Z,6.90
2017-10-16T14:35:22.994Z,6.63
2017-10-16T14:37:51.297Z,7.23
2017-10-16T14:40:18.800Z,6.97
2017-10-16T14:42:46.332Z,6.50
2017-10-16T14:45:13.833Z,6.93
2017-10-16T14:47:41.367Z,7.00
2017-10-16T14:50:09.646Z,6.07
2017-10-16T14:52:37.955Z,6.20
2017-10-16T14:55:05.468Z,7.43
2017-10-16T14:57:33.105Z,6.57
2017-10-16T15:00:00.608Z,7.00
2017-10-16T15:02:28.117Z,7.10
2017-10-16T15:04:55.654Z,7.10
2017-10-16T15:07:23.158Z,7.10
2017-10-16T15:09:50.716Z,6.43
2017-10-16T15:12:18.219Z,7.03
2017-10-16T15:14:45.766Z,6.50
2017-10-16T15:17:13.271Z,6.57
2017-10-16T15:19:40.778Z,6.03
2017-10-16T15:22:08.315Z,6.57
2017-10-16T15:24:36.262Z,6.77
2017-10-16T15:27:03.863Z,6.90
2017-10-16T15:29:31.366Z,6.87
2017-10-16T15:31:58.905Z,6.40
2017-10-16T15:34:27.173Z,6.40
2017-10-16T15:36:54.730Z,7.63
2017-10-16T15:39:22.233Z,7.03
2017-10-16T15:41:49.765Z,5.93
2017-10-16T15:44:17.267Z,6.37
2017-10-16T15:46:44.800Z,7.47
2017-10-16T15:49:12.377Z,6.30
2017-10-16T15:51:39.881Z,6.20
2017-10-16T15:54:08.178Z,6.90
2017-10-16T15:56:36.463Z,6.60
2017-10-16T15:59:04.005Z,5.67
2017-10-16T16:01:31.499Z,7.07
2017-10-16T16:03:59.038Z,5.97
2017-10-16T16:06:26.549Z,6.20
2017-10-16T16:08:54.099Z,6.70
2017-10-16T16:11:21.598Z,6.30
2017-10-16T16:13:50.209Z,6.47
2017-10-16T16:16:17.720Z,6.70
2017-10-16T16:18:45.227Z,7.10
2017-10-16T16:21:12.780Z,6.63
2017-10-16T16:23:40.294Z,6.93
2017-10-16T16:26:07.847Z,8.10
2017-10-16T16:28:35.365Z,6.50
2017-10-16T16:31:02.905Z,7.47
2017-10-16T16:33:31.182Z,7.40
2017-10-16T16:35:59.629Z,6.80
2017-10-16T16:38:27.193Z,7.50
2017-10-16T16:40:54.753Z,6.73
2017-10-16T16:43:22.658Z,7.80
2017-10-16T16:45:50.175Z,7.30
2017-10-16T16:48:17.713Z,7.17
2017-10-16T16:50:45.243Z,8.37
2017-10-16T16:53:12.791Z,7.23
2017-10-16T16:55:40.308Z,7.47
2017-10-16T16:58:07.846Z,7.90
2017-10-16T17:00:36.121Z,7.60
2017-10-16T17:03:04.456Z,7.97
2017-10-16T17:05:32.017Z,7.50
2017-10-16T17:07:59.524Z,8.20
2017-10-16T17:10:27.060Z,7.90
2017-10-16T17:12:54.604Z,7.47
2017-10-16T17:15:22.957Z,8.20
2017-10-16T17:17:50.479Z,7.20
2017-10-16T17:20:18.250Z,7.87
2017-10-16T17:22:46.536Z,8.17
2017-10-16T17:25:14.855Z,12.07
2017-10-16T17:27:42.406Z,13.53
2017-10-16T17:30:10.790Z,14.27
2017-10-16T17:32:38.690Z,12.40
2017-10-16T17:35:06.249Z,13.43
2017-10-16T17:37:33.754Z,16.37
2017-10-16T17:40:01.268Z,13.90
2017-10-16T17:42:28.837Z,14.87
2017-10-16T17:44:56.350Z,12.43
2017-10-16T17:47:33.835Z,10.83
2017-10-16T17:50:02.131Z,10.37
2017-10-16T17:52:29.689Z,9.70
2017-10-16T17:54:57.191Z,9.50
2017-10-16T17:57:24.754Z,8.63
2017-10-16T17:59:52.251Z,11.10
2017-10-16T18:02:19.814Z,10.60
2017-10-16T18:04:47.319Z,10.17
2017-10-16T18:07:14.902Z,10.10
2017-10-16T18:09:42.610Z,9.30
2017-10-16T18:12:10.221Z,10.60
2017-10-16T18:14:37.993Z,10.67
2017-10-16T18:17:05.651Z,9.90
2017-10-16T18:19:33.738Z,10.70
2017-10-16T18:22:01.931Z,10.00
2017-10-16T18:24:29.767Z,11.57
2017-10-16T18:27:03.758Z,9.90
2017-10-16T18:29:31.503Z,10.17
2017-10-16T18:32:00.224Z,10.50
2017-10-16T18:34:27.943Z,10.23
2017-10-16T18:36:55.722Z,11.03
2017-10-16T18:39:23.446Z,9.83
2017-10-16T18:41:51.833Z,9.80
2017-10-16T18:44:19.330Z,10.60
2017-10-16T18:46:46.990Z,11.17
2017-10-16T18:49:15.316Z,11.50
2017-10-16T18:51:42.861Z,10.30
2017-10-16T18:54:10.414Z,10.80
2017-10-16T18:56:37.985Z,10.70
2017-10-16T18:59:05.490Z,11.70
2017-10-16T19:01:33.007Z,12.03
2017-10-16T19:04:01.045Z,11.17
2017-10-16T19:06:29.335Z,11.90
2017-10-16T19:08:57.021Z,12.30
2017-10-16T19:11:24.800Z,11.93
2017-10-16T19:13:52.651Z,12.70
2017-10-16T19:16:20.348Z,13.30
2017-10-16T19:18:48.042Z,12.67
2017-10-16T19:21:16.455Z,12.77
2017-10-16T19:23:44.124Z,12.13
2017-10-16T19:26:11.741Z,12.00
2017-10-16T19:28:39.365Z,11.37
2017-10-16T19:31:07.221Z,10.93
2017-10-16T19:33:34.821Z,13.03
2017-10-16T19:36:02.565Z,12.67
2017-10-16T19:38:30.398Z,11.70
2017-10-16T19:40:58.232Z,10.40
2017-10-16T19:43:25.734Z,11.30
2017-10-16T19:45:53.299Z,10.57
2017-10-16T19:48:20.811Z,10.50
2017-10-16T19:50:48.461Z,11.60
2017-10-16T19:53:16.221Z,12.33
2017-10-16T19:55:43.963Z,11.50
2017-10-16T19:58:11.661Z,13.00
2017-10-16T20:00:39.322Z,13.20
2017-10-16T20:03:07.053Z,13.37
2017-10-16T20:05:34.830Z,13.30
2017-10-16T20:08:02.610Z,13.10
2017-10-16T20:10:30.222Z,15.97
2017-10-16T20:12:57.767Z,15.40
2017-10-16T20:15:25.394Z,15.03
2017-10-16T20:17:52.948Z,16.47
2017-10-16T20:20:20.579Z,16.80
2017-10-16T20:22:48.720Z,16.40
2017-10-16T20:25:16.854Z,16.37
2017-10-16T20:27:44.354Z,17.40
2017-10-16T20:30:12.177Z,16.73
2017-10-16T20:32:39.786Z,15.57
2017-10-16T20:35:07.339Z,16.97
2017-10-16T20:37:34.834Z,15.90
2017-10-16T20:40:02.375Z,14.60
2017-10-16T20:42:29.865Z,15.70
2017-10-16T20:44:57.418Z,15.67
2017-10-16T20:47:25.728Z,18.50
2017-10-16T20:49:53.590Z,16.27
2017-10-16T20:52:21.203Z,15.70
2017-10-16T20:54:48.753Z,16.00
2017-10-16T20:57:16.511Z,16.83
2017-10-16T20:59:44.190Z,15.47
2017-10-16T21:02:11.765Z,15.03
2017-10-16T21:04:39.334Z,14.50
2017-10-16T21:07:06.897Z,15.30
2017-10-16T21:09:34.398Z,15.87
2017-10-16T21:12:01.928Z,15.20
2017-10-16T21:14:30.209Z,16.50
2017-10-16T21:16:57.784Z,16.43
2017-10-16T21:19:26.146Z,16.23
2017-10-16T21:21:53.681Z,15.70
2017-10-16T21:24:21.243Z,15.50
2017-10-16T21:26:48.887Z,17.70
2017-10-16T21:29:17.648Z,15.33
2017-10-16T21:31:45.710Z,15.37
2017-10-16T21:34:13.773Z,15.03
2017-10-16T21:36:42.232Z,15.40
2017-10-16T21:39:09.952Z,14.90
2017-10-16T21:41:37.616Z,14.87
2017-10-16T21:44:05.306Z,15.50
2017-10-16T21:46:32.873Z,15.47
2017-10-16T21:49:01.304Z,15.40
2017-10-16T21:51:28.978Z,15.67
2017-10-16T21:53:56.903Z,14.50
2017-10-16T21:56:24.457Z,14.93
2017-10-16T21:58:51.959Z,14.70
2017-10-16T22:01:19.522Z,14.23
2017-10-16T22:03:47.247Z,15.30
2017-10-16T22:06:15.228Z,13.83
2017-10-16T22:08:43.040Z,14.57
2017-10-16T22:11:10.873Z,13.60
2017-10-16T22:13:38.479Z,13.80
2017-10-16T22:16:06.777Z,14.93
2017-10-16T22:18:34.314Z,14.73
2017-10-16T22:21:01.818Z,13.00
2017-10-16T22:23:29.354Z,14.07
2017-10-16T22:25:56.887Z,14.67
2017-10-16T22:28:24.434Z,14.83
2017-10-16T22:30:52.043Z,15.30
2017-10-16T22:33:19.749Z,14.33
2017-10-16T22:35:47.377Z,14.40
2017-10-16T22:38:15.025Z,14.90
2017-10-16T22:40:43.066Z,15.40
2017-10-16T22:43:10.827Z,15.20
2017-10-16T22:45:39.008Z,14.13
2017-10-16T22:48:06.587Z,14.87
2017-10-16T22:50:35.047Z,15.33
2017-10-16T22:53:03.183Z,14.20
2017-10-16T22:55:31.139Z,14.40
2017-10-16T22:58:00.765Z,14.50
2017-10-16T23:00:28.614Z,14.53
2017-10-16T23:02:57.225Z,15.93
2017-10-16T23:05:25.295Z,14.60
2017-10-16T23:07:53.189Z,15.30
2017-10-16T23:10:21.365Z,15.07
2017-10-16T23:12:49.288Z,14.77
2017-10-16T23:15:17.243Z,15.17
2017-10-16T23:17:45.276Z,14.10
2017-10-16T23:20:13.219Z,14.23
2017-10-16T23:22:40.925Z,15.10
2017-10-16T23:25:08.506Z,14.50
2017-10-16T23:27:36.096Z,15.37
2017-10-16T23:30:03.821Z,14.93
2017-10-16T23:32:31.710Z,14.90
2017-10-16T23:34:59.599Z,16.10
2017-10-16T23:37:27.718Z,17.20
2017-10-16T23:39:56.381Z,16.83
2017-10-16T23:42:25.602Z,15.90
2017-10-16T23:44:53.267Z,15.17
2017-10-16T23:47:20.890Z,16.73
2017-10-16T23:49:48.714Z,16.10
2017-10-16T23:52:16.311Z,16.73
2017-10-16T23:54:44.012Z,17.10
2017-10-16T23:57:11.597Z,17.20
2017-10-16T23:59:39.314Z,15.33
